Flight Track Log - Related Links

Times and Time Zones

All times are in EDT time to prevent confusion due to time zone crossing. See the ASQ6041 flight status page for this flight to view local times or setup timezone preferences in your user account.

Time Position Orientation Groundspeed Altitude Reporting Facility
EDT Latitude Longitude Course Direction KTS MPH feet Rate Location/Type
Fri 07:05:53 AM 33.5703 -86.7464 53° Northeast 160 184 1,300  Level Atlanta Center
Fri 07:06:35 AM 33.5900 -86.7144 53° Northeast 158 182 2,600 1,864 Climbing Atlanta Center
Fri 07:07:36 AM 33.6225 -86.6558 56° Northeast 224 258 4,500 1,684 Climbing Atlanta Center
Fri 07:08:29 AM 33.6550 -86.5967 57° Northeast 243 280 5,800 1,805 Climbing Atlanta Center
Fri 07:09:29 AM 33.6964 -86.5181 58° Northeast 263 303 7,900 2,200 Climbing Atlanta Center
Fri 07:10:29 AM 33.7517 -86.4572 42° Northeast 268 308 10,200 1,600 Climbing Atlanta Center
Fri 07:11:29 AM 33.8178 -86.3892 41° Northeast 282 325 11,100 850 Climbing Atlanta Center
Fri 07:12:29 AM 33.8922 -86.3086 42° Northeast 320 368 11,900 950 Climbing Atlanta Center
Fri 07:13:29 AM 33.9689 -86.2256 42° Northeast 350 403 13,000 1,200 Climbing Atlanta Center
Fri 07:14:29 AM 34.0475 -86.1422 41° Northeast 369 425 14,300 1,250 Climbing Atlanta Center
Fri 07:15:29 AM 34.1306 -86.0564 41° Northeast 375 432 15,500 1,200 Climbing Atlanta Center
Fri 07:16:29 AM 34.2111 -85.9706 41° Northeast 375 432 16,700 1,200 Climbing Atlanta Center
Fri 07:17:29 AM 34.2897 -85.8817 43° Northeast 375 432 17,900 1,050 Climbing Atlanta Center
Fri 07:18:29 AM 34.3703 -85.7981 41° Northeast 375 432 18,800 1,100 Climbing Atlanta Center
Fri 07:19:29 AM 34.4592 -85.7014 42° Northeast 375 432 20,100 1,250 Climbing Atlanta Center
Fri 07:20:29 AM 34.5419 -85.6100 42° Northeast 375 432 21,300 1,600 Climbing Atlanta Center
Fri 07:21:29 AM 34.6222 -85.5256 41° Northeast 375 432 23,300 1,850 Climbing Atlanta Center
Fri 07:22:29 AM 34.7006 -85.4411 42° Northeast 375 432 25,000 1,200 Climbing Atlanta Center
Fri 07:23:29 AM 34.7828 -85.3564 40° Northeast 375 432 25,700 800 Climbing Atlanta Center
Fri 07:24:29 AM 34.8811 -85.3225 16° North 357 411 26,600 950 Climbing Atlanta Center
Fri 07:25:29 AM 34.9817 -85.2861 17° North 363 418 27,600 1,000 Climbing Atlanta Center
Fri 07:26:29 AM 35.0822 -85.2519 16° North 369 425 28,600 1,000 Climbing Atlanta Center
Fri 07:27:29 AM 35.1847 -85.2181 15° North 374 430 29,600 1,050 Climbing Atlanta Center
Fri 07:28:29 AM 35.2875 -85.1811 16° North 380 437 30,700 1,050 Climbing Atlanta Center
Fri 07:29:29 AM 35.3900 -85.1469 15° North 380 437 31,700 1,000 Climbing Atlanta Center
Fri 07:30:29 AM 35.4925 -85.1100 16° North 375 432 32,700 1,000 Climbing Atlanta Center
Fri 07:31:29 AM 35.5992 -85.0731 16° North 380 437 33,700 1,000 Climbing Atlanta Center
Fri 07:33:11 AM 35.7722 -85.0106 16° North 389 448 35,400 847 Climbing Indianapolis Center
Fri 07:34:12 AM 35.8775 -84.9733 16° North 390 449 36,000 293 Climbing Indianapolis Center
Fri 07:35:14 AM 35.9822 -84.9369 16° North 400 460 36,000  Level Indianapolis Center
Fri 07:36:15 AM 36.0961 -84.8969 16° North 419 482 36,000  Level Indianapolis Center
Fri 07:37:17 AM 36.2086 -84.8561 16° North 420 483 36,000  Level Indianapolis Center
Fri 07:38:18 AM 36.3233 -84.8161 16° North 425 489 36,000  Level Indianapolis Center
Fri 07:39:20 AM 36.4592 -84.7689 16° North 423 487 36,000  Level Indianapolis Center
Fri 07:40:21 AM 36.5719 -84.7358 13° North 417 480 36,000  Level Indianapolis Center
Fri 07:41:22 AM 36.6861 -84.7028 13° North 421 484 36,000  Level Indianapolis Center
Fri 07:42:24 AM 36.7986 -84.6681 14° North 418 481 36,000  Level Indianapolis Center
Fri 07:43:25 AM 36.9128 -84.6347 13° North 420 483 36,000  Level Indianapolis Center
Fri 07:44:26 AM 37.0267 -84.6000 14° North 421 484 36,000  Level Indianapolis Center
Fri 07:45:28 AM 37.1356 -84.5678 13° North 416 479 36,000  Level Indianapolis Center
Fri 07:46:29 AM 37.2639 -84.5294 13° North 406 467 36,000  Level Indianapolis Center
Fri 07:47:31 AM 37.3681 -84.5322 359° North 375 432 36,000  Level Indianapolis Center
Fri 07:48:32 AM 37.4619 -84.5664 344° North 353 406 36,000  Level Indianapolis Center
Fri 07:49:33 AM 37.5556 -84.5992 344° North 349 402 36,000  Level Indianapolis Center
Fri 07:50:35 AM 37.6486 -84.6306 345° North 345 397 36,000  Level Indianapolis Center
Fri 07:51:36 AM 37.7411 -84.6656 343° North 346 398 36,000  Level Indianapolis Center
Fri 07:52:37 AM 37.8383 -84.7019 344° North 359 413 36,000  Level Indianapolis Center
Fri 07:53:39 AM 37.9400 -84.7364 345° North 374 430 36,000  Level Indianapolis Center
Fri 07:54:40 AM 38.0408 -84.7714 345° North 374 430 36,000  Level Indianapolis Center
Fri 07:55:42 AM 38.1597 -84.8122 345° North 378 435 36,000  Level Indianapolis Center
Fri 07:56:43 AM 38.2611 -84.8503 344° North 379 436 36,000  Level Indianapolis Center
Fri 07:57:44 AM 38.3633 -84.8858 345° North 378 435 36,000  Level Indianapolis Center
Fri 07:58:46 AM 38.4644 -84.9222 344° North 376 433 36,000  Level Indianapolis Center
Fri 07:59:47 AM 38.5653 -84.9592 344° North 376 433 36,000 -195 Level Indianapolis Center
Fri 08:00:49 AM 38.6725 -84.9981 344° North 381 438 35,600 -629 Descending Indianapolis Center
Fri 08:01:51 AM 38.7761 -85.0367 344° North 385 443 34,700 -976 Descending Indianapolis Center
Fri 08:02:52 AM 38.8794 -85.0733 345° North 384 442 33,600 -1,033 Descending Indianapolis Center
Fri 08:03:53 AM 38.9736 -85.1086 344° North 358 412 32,600 -976 Descending Indianapolis Center
Fri 08:04:55 AM 39.0686 -85.1433 344° North 351 404 31,600 -976 Descending Indianapolis Center
Fri 08:05:56 AM 39.1644 -85.1792 344° North 356 410 30,600 -780 Descending Indianapolis Center
Fri 08:06:58 AM 39.2647 -85.2167 344° North 367 422 30,000 -293 Descending Indianapolis Center
Fri 08:07:59 AM 39.3839 -85.2606 344° North 378 435 30,000  Level Indianapolis Center
Fri 08:09:01 AM 39.4872 -85.2972 345° North 381 438 30,000  Level Indianapolis Center
Fri 08:10:02 AM 39.5881 -85.3364 343° North 378 435 30,000 -195 Level Indianapolis Center
Fri 08:11:04 AM 39.6881 -85.3733 344° North 375 432 29,600 -488 Descending Indianapolis Center
Fri 08:12:05 AM 39.7889 -85.4108 344° North 375 432 29,000 -390 Descending Indianapolis Center
Fri 08:13:07 AM 39.8931 -85.4503 344° North 387 445 28,800 -1,073 Descending Indianapolis Center
Fri 08:14:08 AM 39.9933 -85.4875 344° North 376 433 26,800 -1,366 Descending Indianapolis Center
Fri 08:15:10 AM 40.0922 -85.5258 343° North 371 427 26,000 -780 Descending Indianapolis Center
Fri 08:16:11 AM 40.2175 -85.5742 344° North 391 450 25,200 -878 Descending Indianapolis Center
Fri 08:17:13 AM 40.3267 -85.6142 344° North 403 464 24,200 -581 Descending Indianapolis Center
Fri 08:18:15 AM 40.4367 -85.6572 343° North 409 471 24,000 -98 Descending Indianapolis Center
Fri 08:19:16 AM 40.5447 -85.6992 344° North 405 466 24,000  Level Indianapolis Center
Fri 08:20:18 AM 40.6494 -85.7506 340° North 401 461 24,000 -293 Level Indianapolis Center
Fri 08:21:19 AM 40.7142 -85.8611 308° West 378 435 23,400 -683 Descending Indianapolis Center
Fri 08:22:21 AM 40.7736 -85.9794 304° West 384 442 22,600 -613 Descending Indianapolis Center
Fri 08:23:36 AM 40.8536 -86.1408 303° West 389 448 22,000 -265 Descending Chicago Center
Fri 08:24:37 AM 40.9114 -86.2597 303° West 385 443 22,000  Level Chicago Center
Fri 08:25:39 AM 40.9703 -86.3775 304° West 384 442 22,000  Level Chicago Center
Fri 08:26:41 AM 41.0286 -86.4978 303° West 387 445 22,000  Level Chicago Center
Fri 08:27:43 AM 41.0878 -86.6203 303° West 393 452 22,000 -1,073 Level Chicago Center
Fri 08:28:44 AM 41.1539 -86.7503 304° West 386 444 19,800 -2,195 Descending Chicago Center
Fri 08:29:46 AM 41.2092 -86.8647 303° West 373 429 17,500 -2,323 Descending Chicago Center
Fri 08:30:48 AM 41.2592 -86.9758 301° West 354 407 15,000 -2,419 Descending Chicago Center
Fri 08:31:50 AM 41.3122 -87.0861 303° West 356 410 12,500 -1,935 Descending Chicago Center
Fri 08:32:52 AM 41.3644 -87.1922 303° West 347 399 11,000 -776 Descending Chicago Center
Fri 08:33:46 AM 41.4500 -87.2833 321° Northwest 345 397 11,000 -111 Level Chicago TRACON
Fri 08:34:40 AM 41.5000 -87.3667 309° West 347 399 10,800 -348 Descending Chicago TRACON
Fri 08:34:55 AM 41.5219 -87.3794 336° Northwest 346 398 10,600 -623 Descending Chicago Center
Fri 08:35:57 AM 41.5928 -87.4583 320° Northwest 336 387 10,000 -290 Descending Chicago Center
Fri 08:36:59 AM 41.6611 -87.5331 321° Northwest 322 371 10,000  Level Chicago Center
Fri 08:38:01 AM 41.7297 -87.6111 320° Northwest 326 375 10,000  Level Chicago Center
Fri 08:38:47 AM 41.8000 -87.6833 323° Northwest 317 365 10,000 -679 Level Chicago TRACON
Fri 08:39:47 AM 41.8500 -87.7500 315° West 266 306 8,800 -1,250 Descending Chicago TRACON
Fri 08:40:47 AM 41.8833 -87.8333 298° West 263 303 7,500 -900 Descending Chicago TRACON
Fri 08:41:47 AM 41.8833 -87.9167 270° West 251 289 7,000 -647 Descending Chicago TRACON
Fri 08:44:11 AM 41.8875 -88.0936 272° West 182 209 5,300 -933 Descending Chicago Center
Fri 08:44:47 AM 41.9167 -88.1000 351° North 196 226 4,200 -1,546 Descending Chicago TRACON
Fri 08:45:48 AM 41.9667 -88.0667 26° Northeast 213 245 2,800 -1,190 Descending Chicago TRACON
Fri 08:46:48 AM 41.9667 -88.0000 90° East 150 173 1,800 -850 Descending Chicago TRACON
Fri 08:47:48 AM 41.9667 -87.9500 90° East 135 155 1,100 -700 Descending Chicago TRACON

Login

Don't have an account? Register now (free) for customized features, flight alerts, and more!